Latest Coastal Weather Observations for Croker Island Airport

IDD60701

Issued at 4:01 pm CST Saturday 27 August 2016 (issued every 10 minutes, with the page automatically refreshed every 10 minutes)

About coastal observations | Map of coastal stations | Coastal observations for NT | Marine services | Other Formats
Station Details ID: 014308 Name: CROKER ISLAND AIRPORT Lat: -11.16 Lon: 132.48 Height: 9.2 m
Data from the previous 72 hours. | See also: Recent months at Croker Island Airport
Date/Time
CST
Temp
°C
Wind Pressure Rain since
9am
mm
Weather Cloud Vis
km
Sea
Height
m
Swell
Dir  Spd
kts
Gust
kts
hPa Trend Height
m
Period
s
Dir
27/04:00pm 29.4 ENE 11 15 1012.3 - 0.0 - - - - - - -
27/03:30pm 29.3 ENE 13 18 1012.3 - 0.0 - - - - - - -
27/03:00pm 29.8 E 13 18 1012.3 - 0.0 - - - - - - -
27/02:30pm 30.5 E 12 19 1012.6 - 0.0 - - - - - - -
27/02:00pm 29.9 E 13 21 1013.1 - 0.0 - - - - - - -
27/01:30pm 29.8 E 13 19 1013.8 - 0.0 - - - - - - -
27/01:00pm 29.2 E 14 21 1014.3 - 0.0 - - - - - - -
27/12:30pm 29.3 ESE 13 20 1014.7 - 0.0 - - - - - - -
27/12:00pm 29.4 ESE 13 22 1015.1 - 0.0 - - - - - - -
27/11:30am 28.7 ESE 13 19 1015.7 - 0.0 - - - - - - -
27/11:00am 28.7 E 12 18 1016.0 - 0.0 - - - - - - -
27/10:30am 28.1 E 13 19 1016.2 - 0.0 - - - - - - -
27/10:00am 28.2 ESE 12 19 1016.3 - 0.0 - - - - - - -
27/09:30am 28.0 E 13 19 1016.2 - 0.0 - - - - - - -
27/09:00am 27.3 E 13 21 1016.0 - 0.0 - - - - - - -
27/08:30am 26.8 E 12 17 1015.8 - 0.0 - - - - - - -
27/08:00am 26.1 E 11 17 1015.8 - 0.0 - - - - - - -
27/07:30am 24.9 E 9 14 1015.6 - 0.0 - - - - - - -
27/07:00am 23.7 E 7 11 1015.2 - 0.0 - - - - - - -
27/06:30am 23.8 E 7 11 1015.0 - 0.0 - - - - - - -
27/06:00am 23.9 E 8 12 1014.8 - 0.0 - - - - - - -
27/05:30am 23.8 E 7 10 1014.4 - 0.0 - - - - - - -
27/05:00am 24.1 E 7 10 1014.4 - 0.0 - - - - - - -
27/04:30am 24.3 E 8 12 1014.1 - 0.0 - - - - - - -
27/04:00am 24.3 E 8 12 1014.2 - 0.0 - - - - - - -
27/03:30am 24.4 E 7 11 1014.1 - 0.0 - - - - - - -
27/03:00am 24.7 E 7 10 1014.1 - 0.0 - - - - - - -
27/02:30am 25.2 E 12 19 1014.1 - 0.0 - - - - - - -
27/02:00am 25.5 E 14 22 1014.4 - 0.0 - - - - - - -
27/01:30am 25.6 E 12 21 1014.6 - 0.0 - - - - - - -
27/01:00am 25.8 E 13 19 1014.7 - 0.0 - - - - - - -
27/12:30am 25.6 ENE 11 15 1014.7 - 0.0 - - - - - - -
27/12:00am 25.6 ENE 10 14 1014.6 - 0.0 - - - - - - -
 
Date/Time
CST
Temp
°C
Wind Pressure Rain since
9am
mm
Weather Cloud Vis
km
Sea
Height
m
Swell
Dir  Spd
kts
Gust
kts
hPa Trend Height
m
Period
s
Dir
26/11:30pm 25.5 ENE 7 11 1014.5 - 0.0 - - - - - - -
26/11:00pm 25.4 ENE 7 9 1014.3 - 0.0 - - - - - - -
26/10:30pm 25.3 ENE 6 9 1014.1 - 0.0 - - - - - - -
26/10:00pm 25.3 ENE 5 7 1013.9 - 0.0 - - - - - - -
26/09:30pm 25.4 ENE 6 9 1013.8 - 0.0 - - - - - - -
26/09:00pm 25.5 ENE 7 11 1013.4 - 0.0 - - - - - - -
26/08:30pm 25.4 ENE 6 8 1013.1 - 0.0 - - - - - - -
26/08:00pm 25.7 ENE 6 9 1012.8 - 0.0 - - - - - - -
26/07:30pm 25.8 NE 6 9 1012.5 - 0.0 - - - - - - -
26/07:00pm 26.0 ENE 7 10 1012.3 - 0.0 - - - - - - -
26/06:30pm 26.4 ENE 11 17 1012.0 - 0.0 - - - - - - -
26/06:00pm 27.1 ENE 12 18 1011.8 - 0.0 - - - - - - -
26/05:30pm 27.9 ENE 12 17 1011.6 - 0.0 - - - - - - -
26/05:00pm 28.7 ENE 13 20 1011.4 - 0.0 - - - - - - -
26/04:30pm 29.7 E 14 21 1011.4 - 0.0 - - - - - - -
26/04:00pm 30.0 ENE 14 21 1011.3 - 0.0 - - - - - - -
26/03:30pm 30.9 ENE 13 19 1011.3 - 0.0 - - - - - - -
26/03:00pm 31.1 E 13 20 1011.5 - 0.0 - - - - - - -
26/02:30pm 30.4 E 17 23 1012.0 - 0.0 - - - - - - -
26/02:00pm 30.7 ENE 16 23 1012.3 - 0.0 - - - - - - -
26/01:30pm 31.0 E 15 22 1012.8 - 0.0 - - - - - - -
26/01:00pm 30.7 E 15 22 1013.2 - 0.0 - - - - - - -
26/12:30pm 30.3 ESE 16 24 1013.8 - 0.0 - - - - - - -
26/12:00pm 29.8 E 15 22 1014.1 - 0.0 - - - - - - -
26/11:30am 29.7 E 14 22 1014.5 - 0.0 - - - - - - -
26/11:00am 29.0 E 12 19 1014.6 - 0.0 - - - - - - -
26/10:30am 28.4 ESE 12 18 1014.5 - 0.0 - - - - - - -
26/10:00am 28.7 E 13 21 1014.6 - 0.0 - - - - - - -
26/09:30am 27.2 E 11 16 1014.5 - 0.0 - - - - - - -
26/09:00am 25.6 E 8 13 1014.5 - 0.0 - - - - - - -
26/08:30am 27.9 ENE 8 13 1014.1 - 0.0 - - - - - - -
26/08:00am 26.1 E 4 5 1013.9 - 0.0 - - - - - - -
26/07:30am 24.2 E 3 4 1013.7 - 0.0 - - - - - - -
26/07:00am 23.8 ENE 2 3 1013.3 - 0.0 - - - - - - -
26/06:30am 24.1 ENE 3 4 1012.8 - 0.0 - - - - - - -
26/06:00am 24.2 NE 3 3 1012.5 - 0.0 - - - - - - -
26/05:30am 24.4 ENE 3 4 1012.4 - 0.0 - - - - - - -
26/05:00am 24.6 NE 3 4 1012.2 - 0.0 - - - - - - -
26/04:30am 25.1 NE 3 4 1012.2 - 0.0 - - - - - - -
26/04:00am 25.0 NE 4 6 1012.1 - 0.0 - - - - - - -
26/03:30am 25.1 ENE 4 5 1012.1 - 0.0 - - - - - - -
26/03:00am 24.6 ENE 4 5 1012.3 - 0.0 - - - - - - -
26/02:30am 24.2 E 4 5 1012.3 - 0.0 - - - - - - -
26/02:00am 23.6 E 5 7 1012.0 - 0.0 - - - - - - -
26/01:30am 23.9 ENE 3 3 1011.8 - 0.0 - - - - - - -
26/01:00am 24.1 ENE 3 3 1011.9 - 0.0 - - - - - - -
26/12:30am 25.7 N 2 3 1012.0 - 0.0 - - - - - - -
26/12:00am 25.7 N 3 4 1012.2 - 0.0 - - - - - - -
 
Date/Time
CST
Temp
°C
Wind Pressure Rain since
9am
mm
Weather Cloud Vis
km
Sea
Height
m
Swell
Dir  Spd
kts
Gust
kts
hPa Trend Height
m
Period
s
Dir
25/11:30pm 25.4 NNE 3 4 1012.1 - 0.0 - - - - - - -
25/11:00pm 25.0 ENE 2 3 1011.9 - 0.0 - - - - - - -
25/10:30pm 25.6 NNE 3 3 1011.7 - 0.0 - - - - - - -
25/10:00pm 26.1 N 3 5 1011.5 - 0.0 - - - - - - -
25/09:30pm 26.1 N 3 5 1011.3 - 0.0 - - - - - - -
25/09:00pm 26.3 N 4 6 1010.8 - 0.0 - - - - - - -
25/08:30pm 26.3 N 4 6 1010.5 - 0.0 - - - - - - -
25/08:00pm 26.4 NNW 3 5 1010.3 - 0.0 - - - - - - -
25/07:30pm 26.6 NNW 4 6 1009.8 - 0.0 - - - - - - -
25/07:00pm 26.7 N 4 5 1009.6 - 0.0 - - - - - - -
25/06:30pm 27.1 N 6 8 1009.3 - 0.0 - - - - - - -
25/06:00pm 28.0 NNW 5 8 1009.1 - 0.0 - - - - - - -
25/05:30pm 28.9 NNW 6 9 1008.9 - 0.0 - - - - - - -
25/05:00pm 29.3 NNW 6 9 1008.6 - 0.0 - - - - - - -
25/04:30pm 29.4 NNW 7 9 1008.5 - 0.0 - - - - - - -
25/04:00pm 29.6 NNW 8 12 1008.6 - 0.0 - - - - - - -
25/03:30pm 29.7 NNW 7 11 1008.7 - 0.0 - - - - - - -
25/03:00pm 30.4 NW 7 11 1008.8 - 0.0 - - - - - - -
25/02:30pm 30.3 NNW 7 10 1009.0 - 0.0 - - - - - - -
25/02:00pm 30.6 NNW 8 11 1009.2 - 0.0 - - - - - - -
25/01:30pm 30.7 NW 7 10 1009.4 - 0.0 - - - - - - -
25/01:00pm 30.7 NW 7 11 1009.9 - 0.0 - - - - - - -
25/12:30pm 30.7 NW 7 10 1010.3 - 0.0 - - - - - - -
25/12:00pm 30.2 NNW 6 9 1010.7 - 0.0 - - - - - - -
25/11:30am 30.3 WNW 5 9 1011.1 - 0.0 - - - - - - -
25/11:00am 29.9 WNW 4 7 1011.7 - 0.0 - - - - - - -
25/10:30am 29.4 NW 4 6 1012.0 - 0.0 - - - - - - -
25/10:00am 28.5 WNW 3 6 1012.2 - 0.0 - - - - - - -
25/09:30am 28.8 N 4 6 1012.3 - 0.0 - - - - - - -
25/09:00am 27.4 N 5 8 1012.2 - 0.0 - - - - - - -
25/08:30am 27.4 N 5 7 1011.8 - 0.0 - - - - - - -
25/08:00am 26.2 NE 2 3 1011.6 - 0.0 - - - - - - -
25/07:30am 24.1 NE 3 3 1011.1 - 0.0 - - - - - - -
25/07:00am 22.8 ENE 3 3 1010.8 - 0.0 - - - - - - -
25/06:30am 23.2 NE 2 3 1010.5 - 0.0 - - - - - - -
25/06:00am 23.0 NE 3 3 1010.0 - 0.0 - - - - - - -
25/05:30am 22.8 ENE 3 3 1009.8 - 0.0 - - - - - - -
25/05:00am 23.1 E 3 4 1009.6 - 0.0 - - - - - - -
25/04:30am 23.2 ENE 3 3 1009.5 - 0.0 - - - - - - -
25/04:00am 23.9 CALM 0 0 1009.6 - 0.0 - - - - - - -
25/03:30am 25.1 SW 2 3 1009.7 - 0.0 - - - - - - -
25/03:00am 25.4 SW 3 4 1009.7 - 0.0 - - - - - - -
25/02:30am 25.6 SW 5 7 1009.8 - 0.0 - - - - - - -
25/02:00am 25.8 W 4 5 1010.1 - 0.0 - - - - - - -
25/01:30am 26.1 WSW 4 7 1010.4 - 0.0 - - - - - - -
25/01:00am 26.1 WNW 5 8 1010.5 - 0.0 - - - - - - -
25/12:30am 26.3 WNW 7 10 1010.7 - 0.0 - - - - - - -
25/12:00am 26.2 WNW 6 9 1010.7 - 0.0 - - - - - - -
 
Date/Time
CST
Temp
°C
Wind Pressure Rain since
9am
mm
Weather Cloud Vis
km
Sea
Height
m
Swell
Dir  Spd
kts
Gust
kts
hPa Trend Height
m
Period
s
Dir
24/11:30pm 26.0 NW 5 9 1010.8 - 0.0 - - - - - - -
24/11:00pm 26.1 NW 5 7 1010.7 - 0.0 - - - - - - -
24/10:30pm 26.1 NW 5 8 1010.6 - 0.0 - - - - - - -
24/10:00pm 26.3 NNW 7 9 1010.4 - 0.0 - - - - - - -
24/09:30pm 26.3 NNW 6 10 1010.2 - 0.0 - - - - - - -
24/09:00pm 26.3 NNW 6 8 1009.9 - 0.0 - - - - - - -
24/08:30pm 26.1 NNW 4 6 1009.8 - 0.0 - - - - - - -
24/08:00pm 26.1 NW 4 6 1009.3 - 0.0 - - - - - - -
24/07:30pm 26.1 NW 3 5 1009.1 - 0.0 - - - - - - -
24/07:00pm 26.4 NNW 3 6 1008.8 - 0.0 - - - - - - -
24/06:30pm 26.9 NNW 6 8 1008.4 - 0.0 - - - - - - -
24/06:00pm 27.9 NNW 6 8 1008.2 - 0.0 - - - - - - -
24/05:30pm 28.7 N 7 10 1008.0 - 0.0 - - - - - - -
24/05:00pm 29.0 NNW 7 11 1007.8 - 0.0 - - - - - - -
24/04:30pm 29.5 NNW 8 11 1007.9 - 0.0 - - - - - - -

Other Formats:

Comma delimited format used in spreadsheet applications
http://www.bom.gov.au/fwo/IDD60701/IDD60701.94108.axf

JavaScript Object Notation format (JSON) in row-major order
http://www.bom.gov.au/fwo/IDD60701/IDD60701.94108.json